Time;durP1;ratioP1;P1;durP2;ratioP2;P2;SDS_P1;SDS_P2;PMS_P1;PMS_P2;Temp;Humidity;BMP_temperature;BMP_pressure;BME280_temperature;BME280_humidity;BME280_pressure;Samples;Min_cycle;Max_cycle;Signal;HPM_P1;HPM_P2
2023/09/25 00:00:20;;;;;;;5.63;4.15;;;14.20;99.90;;;;;;6243357;22;20035;-76
2023/09/25 00:03:06;;;;;;;5.88;4.40;;;14.10;99.90;;;;;;6240103;23;20097;-75
2023/09/25 00:05:53;;;;;;;5.55;4.65;;;14.10;99.90;;;;;;6243093;23;20074;-76
2023/09/25 00:08:40;;;;;;;6.68;4.38;;;14.10;99.90;;;;;;6239517;23;20008;-75
2023/09/25 00:11:26;;;;;;;6.50;4.47;;;14.10;99.90;;;;;;6241979;22;20015;-75
2023/09/25 00:14:12;;;;;;;6.88;4.50;;;14.00;99.90;;;;;;6242825;23;20008;-75
2023/09/25 00:16:58;;;;;;;6.72;4.80;;;14.00;99.90;;;;;;6241832;22;20008;-77
2023/09/25 00:19:43;;;;;;;4.78;3.90;;;14.00;99.90;;;;;;6242766;23;20010;-75
2023/09/25 00:22:30;;;;;;;5.20;4.32;;;14.00;99.90;;;;;;6242034;23;20357;-75
2023/09/25 00:25:20;;;;;;;5.63;3.90;;;14.00;99.90;;;;;;6239681;23;20043;-78
2023/09/25 00:28:06;;;;;;;6.10;4.47;;;13.90;99.90;;;;;;6239610;23;20446;-76
2023/09/25 00:30:52;;;;;;;5.43;4.25;;;13.90;99.90;;;;;;6240316;23;20022;-76
2023/09/25 00:33:38;;;;;;;6.43;4.93;;;13.80;99.90;;;;;;6242171;22;20008;-77
2023/09/25 00:36:25;;;;;;;6.05;4.47;;;13.80;99.90;;;;;;6218615;23;20069;-77
2023/09/25 00:39:10;;;;;;;6.30;4.47;;;13.80;99.90;;;;;;6238272;23;20388;-77
2023/09/25 00:41:57;;;;;;;6.05;4.55;;;13.80;99.90;;;;;;6240823;23;20111;-76
2023/09/25 00:44:43;;;;;;;7.70;4.82;;;13.80;99.90;;;;;;6239557;23;20020;-77
2023/09/25 00:47:29;;;;;;;6.13;4.57;;;13.80;99.90;;;;;;6242106;22;20450;-76
2023/09/25 00:50:16;;;;;;;5.40;4.38;;;13.80;99.90;;;;;;6218114;23;20066;-75
2023/09/25 00:53:07;;;;;;;6.43;4.90;;;13.70;99.90;;;;;;6238864;23;20012;-74
2023/09/25 00:55:55;;;;;;;7.45;5.18;;;13.70;99.90;;;;;;6239723;22;20008;-75
2023/09/25 00:58:41;;;;;;;6.97;5.00;;;13.70;99.90;;;;;;6239223;23;20015;-75
2023/09/25 01:01:27;;;;;;;5.75;4.10;;;13.70;99.90;;;;;;6241385;23;20493;-72
2023/09/25 01:04:13;;;;;;;6.57;4.50;;;13.60;99.90;;;;;;6240852;23;20031;-61
2023/09/25 01:07:00;;;;;;;5.55;4.60;;;13.60;99.90;;;;;;6238833;23;20020;-62
2023/09/25 01:10:10;;;;;;;7.15;4.22;;;13.60;99.90;;;;;;6238582;23;20092;-62
2023/09/25 01:12:56;;;;;;;6.22;4.53;;;13.50;99.90;;;;;;6238710;23;20004;-62
2023/09/25 01:15:42;;;;;;;6.18;4.90;;;13.40;99.90;;;;;;6240002;23;20459;-62
2023/09/25 01:18:28;;;;;;;6.10;4.65;;;13.40;99.90;;;;;;6241805;23;20058;-62
2023/09/25 01:21:14;;;;;;;6.20;4.82;;;13.40;99.90;;;;;;6239508;23;20015;-62
2023/09/25 01:24:02;;;;;;;8.63;5.28;;;13.40;99.90;;;;;;6241121;23;20015;-61
2023/09/25 01:26:48;;;;;;;5.75;4.57;;;13.40;99.90;;;;;;6238951;23;20028;-62
2023/09/25 01:29:34;;;;;;;5.90;4.88;;;13.40;99.90;;;;;;6241592;22;20008;-63
2023/09/25 01:32:20;;;;;;;7.63;5.05;;;13.40;99.90;;;;;;6240138;23;20078;-61
2023/09/25 01:35:11;;;;;;;6.35;4.85;;;13.30;99.90;;;;;;6240524;23;20016;-61
2023/09/25 01:38:04;;;;;;;4.95;4.15;;;13.30;99.90;;;;;;6238185;23;20008;-61
2023/09/25 01:40:50;;;;;;;7.47;4.45;;;13.40;99.90;;;;;;6239317;23;20135;-62
2023/09/25 01:43:36;;;;;;;5.95;4.47;;;13.30;99.90;;;;;;6244118;22;20047;-62
2023/09/25 01:46:22;;;;;;;6.10;4.72;;;13.30;99.90;;;;;;6243664;23;20020;-62
2023/09/25 01:49:08;;;;;;;7.25;4.55;;;13.30;99.90;;;;;;6241830;23;20016;-61
2023/09/25 01:51:54;;;;;;;7.63;4.35;;;13.30;99.90;;;;;;6243310;22;20051;-61
2023/09/25 01:54:40;;;;;;;6.50;4.43;;;13.20;99.90;;;;;;6243646;22;20000;-62
2023/09/25 01:57:26;;;;;;;5.85;4.80;;;13.20;99.90;;;;;;6243710;23;20011;-63
2023/09/25 02:00:12;;;;;;;7.93;5.20;;;13.20;99.90;;;;;;6242379;23;20012;-62
2023/09/25 02:02:58;;;;;;;6.93;4.85;;;13.20;99.90;;;;;;6240705;23;20015;-61
2023/09/25 02:05:44;;;;;;;6.57;4.80;;;13.20;99.90;;;;;;6228096;23;20386;-61
2023/09/25 02:08:31;;;;;;;5.70;4.35;;;13.20;99.90;;;;;;6242049;23;20023;-61
2023/09/25 02:11:17;;;;;;;6.22;4.88;;;13.30;99.90;;;;;;6242613;23;20007;-61
2023/09/25 02:14:03;;;;;;;6.32;4.70;;;13.20;99.90;;;;;;6242177;23;20023;-62
2023/09/25 02:16:49;;;;;;;5.97;5.25;;;13.20;99.90;;;;;;6242789;23;20446;-62
2023/09/25 02:19:36;;;;;;;5.55;4.20;;;13.20;99.90;;;;;;6220501;23;20087;-62
2023/09/25 02:22:22;;;;;;;5.90;4.40;;;13.20;99.90;;;;;;6240483;23;20412;-62
2023/09/25 02:25:08;;;;;;;5.25;4.32;;;13.20;99.90;;;;;;6241877;23;20086;-62
2023/09/25 02:27:54;;;;;;;10.20;4.57;;;13.10;99.90;;;;;;6243088;23;20026;-63
2023/09/25 02:30:40;;;;;;;7.72;5.20;;;13.10;99.90;;;;;;6243514;22;20008;-62
2023/09/25 02:33:26;;;;;;;7.03;4.78;;;13.10;99.90;;;;;;6243326;22;20016;-62
2023/09/25 02:36:12;;;;;;;6.43;4.85;;;13.10;99.90;;;;;;6243869;22;20011;-61
2023/09/25 02:38:58;;;;;;;6.43;4.57;;;13.10;99.90;;;;;;6243570;22;20472;-61
2023/09/25 02:41:44;;;;;;;6.22;4.90;;;13.10;99.90;;;;;;6242516;23;20008;-62
2023/09/25 02:44:30;;;;;;;7.30;5.30;;;13.10;99.90;;;;;;6242091;23;20008;-61
2023/09/25 02:47:16;;;;;;;6.90;4.95;;;13.10;99.90;;;;;;6242795;23;20020;-60
2023/09/25 02:50:02;;;;;;;7.43;5.20;;;13.10;99.90;;;;;;6242215;23;20399;-61
2023/09/25 02:52:48;;;;;;;7.57;4.70;;;13.00;99.90;;;;;;6242081;23;20517;-62
2023/09/25 02:55:34;;;;;;;7.03;4.53;;;13.00;99.90;;;;;;6242102;22;20039;-60
2023/09/25 02:58:20;;;;;;;6.68;5.15;;;13.00;99.90;;;;;;6243622;22;20087;-61
2023/09/25 03:01:06;;;;;;;5.20;4.60;;;13.00;99.90;;;;;;6242360;23;20000;-61
2023/09/25 03:03:51;;;;;;;8.85;5.13;;;13.00;99.90;;;;;;6241873;22;20065;-61
2023/09/25 03:06:37;;;;;;;6.45;4.35;;;13.00;99.90;;;;;;6241183;23;20020;-60
2023/09/25 03:09:23;;;;;;;6.15;5.07;;;13.00;99.90;;;;;;6242250;22;20012;-61
2023/09/25 03:12:09;;;;;;;7.25;4.88;;;13.00;99.90;;;;;;6231979;23;20012;-61
2023/09/25 03:14:55;;;;;;;6.75;4.93;;;13.00;99.90;;;;;;6243361;22;20009;-60
2023/09/25 03:17:41;;;;;;;8.75;5.00;;;13.00;99.90;;;;;;6241418;23;20011;-60
2023/09/25 03:20:28;;;;;;;7.45;5.15;;;13.00;99.90;;;;;;6241759;23;20016;-61
2023/09/25 03:23:14;;;;;;;7.30;5.18;;;13.00;99.90;;;;;;6241215;23;20008;-61
2023/09/25 03:26:00;;;;;;;8.45;5.28;;;13.00;99.90;;;;;;6240781;23;20497;-61
2023/09/25 03:28:48;;;;;;;6.82;5.55;;;13.00;99.90;;;;;;6241795;23;20004;-61
2023/09/25 03:31:34;;;;;;;7.40;5.78;;;13.00;99.90;;;;;;6241128;23;20394;-61
2023/09/25 03:34:23;;;;;;;8.77;5.70;;;12.90;99.90;;;;;;6242113;23;20450;-60
2023/09/25 03:37:09;;;;;;;6.53;5.20;;;12.90;99.90;;;;;;6240424;23;20449;-61
2023/09/25 03:39:55;;;;;;;6.80;5.00;;;12.90;99.90;;;;;;6239691;23;20046;-61
2023/09/25 03:42:41;;;;;;;8.05;5.65;;;12.80;99.90;;;;;;6240972;23;20015;-62
2023/09/25 03:45:28;;;;;;;6.70;4.95;;;12.90;99.90;;;;;;6242749;23;20509;-62
2023/09/25 03:48:14;;;;;;;7.32;5.55;;;12.90;99.90;;;;;;6240699;23;20095;-62
2023/09/25 03:51:00;;;;;;;8.02;5.32;;;12.90;99.90;;;;;;6242171;22;20434;-62
2023/09/25 03:53:45;;;;;;;6.97;5.70;;;12.90;99.90;;;;;;6240618;23;20315;-62
2023/09/25 03:56:31;;;;;;;7.95;5.53;;;12.90;99.90;;;;;;6242440;22;20035;-62
2023/09/25 03:59:17;;;;;;;7.85;5.95;;;12.80;99.90;;;;;;6240952;23;20377;-61
2023/09/25 04:02:03;;;;;;;7.38;5.53;;;12.80;99.90;;;;;;6241959;22;20011;-62
2023/09/25 04:04:49;;;;;;;11.00;6.25;;;12.80;99.90;;;;;;6241775;22;20034;-61
2023/09/25 04:07:35;;;;;;;8.25;5.57;;;12.80;99.90;;;;;;6239992;23;20027;-62
2023/09/25 04:10:21;;;;;;;8.07;6.10;;;12.80;99.90;;;;;;6242656;22;20011;-61
2023/09/25 04:13:11;;;;;;;12.90;5.68;;;12.80;99.90;;;;;;6239408;23;20012;-61
2023/09/25 04:15:57;;;;;;;6.75;5.13;;;12.80;99.90;;;;;;6240619;23;20054;-62
2023/09/25 04:18:43;;;;;;;6.90;5.10;;;12.80;99.90;;;;;;6240002;23;20020;-62
2023/09/25 04:21:31;;;;;;;7.57;4.82;;;12.80;99.90;;;;;;6242277;23;20070;-61
2023/09/25 04:24:16;;;;;;;7.55;5.70;;;12.70;99.90;;;;;;6243368;23;20008;-62
2023/09/25 04:27:03;;;;;;;8.50;5.88;;;12.70;99.90;;;;;;6242104;22;20049;-62
2023/09/25 04:29:48;;;;;;;7.20;5.45;;;12.70;99.90;;;;;;6228734;23;20008;-62
2023/09/25 04:32:34;;;;;;;6.88;5.63;;;12.70;99.90;;;;;;6241833;22;20008;-61
2023/09/25 04:35:21;;;;;;;9.45;5.72;;;12.70;99.90;;;;;;6242766;22;20044;-62
2023/09/25 04:38:08;;;;;;;7.85;5.72;;;12.70;99.90;;;;;;6239506;23;20319;-61
2023/09/25 04:40:54;;;;;;;8.43;6.20;;;12.70;99.90;;;;;;6240221;23;20528;-61
2023/09/25 04:43:40;;;;;;;7.25;5.85;;;12.70;99.90;;;;;;6240000;23;20031;-61
2023/09/25 04:46:26;;;;;;;9.35;6.10;;;12.60;99.90;;;;;;6241142;23;20020;-59
2023/09/25 04:49:13;;;;;;;9.55;5.30;;;12.60;99.90;;;;;;6239949;23;20012;-62
2023/09/25 04:51:59;;;;;;;8.43;5.53;;;12.60;99.90;;;;;;6239924;23;20022;-63
2023/09/25 04:54:45;;;;;;;10.18;6.60;;;12.50;99.90;;;;;;6240979;22;20307;-62
2023/09/25 04:57:33;;;;;;;8.93;6.03;;;12.50;99.90;;;;;;6238883;23;20159;-61
2023/09/25 05:00:26;;;;;;;9.63;6.25;;;12.50;99.90;;;;;;6241826;23;20004;-61
2023/09/25 05:03:12;;;;;;;7.57;6.15;;;12.50;99.90;;;;;;6238897;23;20080;-61
2023/09/25 05:05:58;;;;;;;8.20;5.63;;;12.50;99.90;;;;;;6218858;23;20020;-61
2023/09/25 05:08:44;;;;;;;7.43;5.70;;;12.50;99.90;;;;;;6238844;23;20626;-61
2023/09/25 05:11:30;;;;;;;8.23;6.53;;;12.50;99.90;;;;;;6241266;22;20040;-61
2023/09/25 05:14:17;;;;;;;8.63;6.00;;;12.50;99.90;;;;;;6239902;23;20147;-61
2023/09/25 05:17:04;;;;;;;8.38;6.35;;;12.50;99.90;;;;;;6241926;23;20012;-60
2023/09/25 05:19:50;;;;;;;7.43;6.18;;;12.50;99.90;;;;;;6242983;23;20012;-61
2023/09/25 05:22:39;;;;;;;9.15;6.05;;;12.50;99.90;;;;;;6243370;22;20009;-61
2023/09/25 05:25:26;;;;;;;17.10;7.82;;;12.50;99.90;;;;;;6240740;23;20012;-60
2023/09/25 05:28:12;;;;;;;11.77;6.97;;;12.50;99.90;;;;;;6241632;23;20012;-60
2023/09/25 05:30:59;;;;;;;11.65;7.53;;;12.60;99.90;;;;;;6242338;23;20008;-61
2023/09/25 05:38:36;;;;;;;8.48;6.25;;;12.60;99.90;;;;;;6242020;23;20381;-61
2023/09/25 05:41:22;;;;;;;8.85;6.05;;;12.60;99.90;;;;;;6240966;23;20020;-61
2023/09/25 05:44:09;;;;;;;9.10;6.78;;;12.70;99.90;;;;;;6242264;23;20005;-61
2023/09/25 05:46:55;;;;;;;11.27;6.70;;;12.70;99.90;;;;;;6240416;23;20016;-62
2023/09/25 05:49:41;;;;;;;10.23;6.72;;;12.70;99.90;;;;;;6241148;23;20008;-61
2023/09/25 05:52:28;;;;;;;8.30;6.05;;;12.70;99.90;;;;;;6240627;23;20016;-62
2023/09/25 05:55:14;;;;;;;10.50;7.20;;;12.70;99.90;;;;;;6240943;22;20015;-62
2023/09/25 05:58:00;;;;;;;11.30;6.85;;;12.70;99.90;;;;;;6240120;23;20022;-62
2023/09/25 06:00:47;;;;;;;11.00;6.47;;;12.80;99.90;;;;;;6241024;23;20276;-62
2023/09/25 06:03:33;;;;;;;10.90;7.35;;;12.80;99.90;;;;;;6241182;23;20062;-62
2023/09/25 06:06:19;;;;;;;12.73;6.45;;;12.80;99.90;;;;;;6241089;23;20044;-62
2023/09/25 06:09:08;;;;;;;9.02;6.68;;;12.80;99.90;;;;;;6240090;23;20007;-61
2023/09/25 06:11:54;;;;;;;10.15;6.75;;;12.80;99.90;;;;;;6239708;23;20016;-60
2023/09/25 06:14:40;;;;;;;8.65;6.82;;;12.90;99.90;;;;;;6240790;23;20035;-60
2023/09/25 06:17:26;;;;;;;7.60;5.45;;;12.90;99.90;;;;;;6242940;23;20012;-60
2023/09/25 06:20:15;;;;;;;9.00;7.25;;;13.00;99.90;;;;;;6241423;23;20464;-60
2023/09/25 06:23:01;;;;;;;7.43;5.97;;;13.00;99.90;;;;;;6240218;23;20008;-60
2023/09/25 06:25:47;;;;;;;10.13;6.68;;;13.00;99.90;;;;;;6242614;23;20012;-60
2023/09/25 06:28:33;;;;;;;10.88;6.35;;;13.10;99.90;;;;;;6241863;23;20087;-59
2023/09/25 06:31:20;;;;;;;11.95;6.18;;;13.10;99.90;;;;;;6239406;23;20016;-60
2023/09/25 06:34:07;;;;;;;10.10;6.53;;;13.10;99.90;;;;;;6240410;23;20004;-60
2023/09/25 06:36:53;;;;;;;10.65;6.72;;;13.20;99.90;;;;;;6242613;23;20015;-60
2023/09/25 06:39:39;;;;;;;9.77;6.88;;;13.20;99.90;;;;;;6241149;23;20095;-60
2023/09/25 06:42:26;;;;;;;10.38;6.47;;;13.30;99.90;;;;;;6240942;23;20345;-59
2023/09/25 06:45:12;;;;;;;9.75;6.85;;;13.30;99.90;;;;;;6240683;23;20008;-60
2023/09/25 06:47:58;;;;;;;10.30;5.43;;;13.30;99.90;;;;;;6242908;22;20319;-58
2023/09/25 06:50:44;;;;;;;12.02;6.60;;;13.40;99.90;;;;;;6242296;23;20008;-59
2023/09/25 06:53:30;;;;;;;12.27;6.53;;;13.40;99.90;;;;;;6242418;22;20012;-60
2023/09/25 06:56:16;;;;;;;8.90;6.60;;;13.50;99.90;;;;;;6241972;22;20175;-59
2023/09/25 06:59:02;;;;;;;8.82;6.35;;;13.50;99.90;;;;;;6242317;23;20069;-60
2023/09/25 07:01:48;;;;;;;9.48;6.68;;;13.60;99.90;;;;;;6240551;23;20004;-61
2023/09/25 07:04:34;;;;;;;8.13;5.70;;;13.60;99.90;;;;;;6241428;23;20086;-60
2023/09/25 07:07:20;;;;;;;8.35;5.78;;;13.70;99.90;;;;;;6241867;23;20074;-62
2023/09/25 07:10:09;;;;;;;10.30;6.25;;;13.80;99.90;;;;;;6239957;23;20016;-60
2023/09/25 07:12:56;;;;;;;9.20;6.50;;;13.80;99.90;;;;;;6240659;23;20012;-61
2023/09/25 07:15:45;;;;;;;7.20;5.90;;;13.80;99.90;;;;;;6240866;23;20016;-60
2023/09/25 07:18:31;;;;;;;12.75;6.22;;;13.90;99.90;;;;;;6239831;23;20012;-59
2023/09/25 07:21:17;;;;;;;9.23;6.13;;;14.00;99.90;;;;;;6240646;23;20016;-59
2023/09/25 07:24:04;;;;;;;8.82;5.53;;;14.00;99.90;;;;;;6217693;23;20016;-59
2023/09/25 07:26:51;;;;;;;10.70;6.75;;;14.10;99.90;;;;;;6241088;23;20377;-60
2023/09/25 07:29:37;;;;;;;8.75;5.40;;;14.20;99.90;;;;;;6240836;23;20008;-59
2023/09/25 07:32:23;;;;;;;8.13;6.40;;;14.20;99.90;;;;;;6239757;23;20020;-59
2023/09/25 07:35:10;;;;;;;9.13;5.90;;;14.30;99.90;;;;;;6219024;23;20473;-60
2023/09/25 07:37:56;;;;;;;8.18;5.50;;;14.40;99.90;;;;;;6240444;22;20020;-60
2023/09/25 07:40:42;;;;;;;7.50;5.22;;;14.50;99.90;;;;;;6240845;23;20086;-61
2023/09/25 07:43:29;;;;;;;9.25;5.57;;;14.60;99.90;;;;;;6239458;23;20077;-60
2023/09/25 07:46:17;;;;;;;8.20;5.13;;;14.70;99.90;;;;;;6240667;23;20027;-59
2023/09/25 07:49:03;;;;;;;7.20;4.90;;;14.80;99.90;;;;;;6240920;23;20012;-59
2023/09/25 07:51:51;;;;;;;10.20;5.78;;;14.90;99.90;;;;;;6242209;23;20019;-59
2023/09/25 07:54:37;;;;;;;7.15;4.97;;;15.00;99.90;;;;;;6241924;23;20036;-59
2023/09/25 07:57:23;;;;;;;8.63;4.93;;;15.10;99.90;;;;;;6241147;22;20012;-60
2023/09/25 08:03:09;;;;;;;6.20;4.70;;;15.30;99.90;;;;;;6240364;23;20528;-60
2023/09/25 08:05:54;;;;;;;8.40;4.95;;;15.40;99.90;;;;;;6239848;23;20043;-59
2023/09/25 08:08:40;;;;;;;6.97;5.30;;;15.50;99.90;;;;;;6241337;23;20450;-60
2023/09/25 08:11:26;;;;;;;6.65;4.70;;;15.50;99.90;;;;;;6242230;22;20091;-71
2023/09/25 08:14:12;;;;;;;8.32;4.93;;;15.70;99.90;;;;;;6241747;23;20008;-70
2023/09/25 08:16:59;;;;;;;5.15;3.70;;;15.70;99.90;;;;;;6241404;23;20087;-70
2023/09/25 08:19:44;;;;;;;8.45;4.70;;;15.90;99.90;;;;;;6242195;23;20008;-70
2023/09/25 08:22:31;;;;;;;5.60;4.10;;;15.90;99.90;;;;;;6242259;23;20008;-71
2023/09/25 08:25:17;;;;;;;6.88;4.32;;;16.00;99.90;;;;;;6240421;23;20039;-71
2023/09/25 08:28:03;;;;;;;5.13;3.65;;;16.10;99.90;;;;;;6241866;23;20011;-70
2023/09/25 08:30:49;;;;;;;5.82;3.78;;;16.20;99.90;;;;;;6247004;22;20032;-70
2023/09/25 08:33:35;;;;;;;5.75;3.45;;;16.30;99.90;;;;;;6251784;23;20023;-71
2023/09/25 08:36:21;;;;;;;7.63;4.18;;;16.30;99.90;;;;;;6254491;23;20012;-71
2023/09/25 08:39:10;;;;;;;5.63;3.85;;;16.40;99.90;;;;;;6243718;23;20030;-72
2023/09/25 08:41:57;;;;;;;5.15;3.63;;;16.50;99.90;;;;;;6240292;23;20442;-72
2023/09/25 08:44:43;;;;;;;5.53;3.85;;;16.60;99.90;;;;;;6240288;23;20020;-72
2023/09/25 08:47:31;;;;;;;5.72;3.90;;;16.70;99.90;;;;;;6240907;23;20024;-72
2023/09/25 08:50:17;;;;;;;4.47;3.28;;;16.80;99.90;;;;;;6241444;23;20060;-72
2023/09/25 08:53:03;;;;;;;5.45;3.20;;;16.80;99.90;;;;;;6241886;23;20011;-71
2023/09/25 08:55:50;;;;;;;4.55;3.17;;;16.90;99.90;;;;;;6238574;22;20015;-72
2023/09/25 08:58:36;;;;;;;5.03;3.42;;;17.00;99.90;;;;;;6239946;23;20000;-73
2023/09/25 09:01:22;;;;;;;6.07;4.03;;;17.10;99.90;;;;;;6241993;22;20016;-70
2023/09/25 09:04:10;;;;;;;4.80;3.28;;;17.10;99.90;;;;;;6239409;23;20453;-72
2023/09/25 09:07:05;;;;;;;4.45;2.92;;;17.20;99.90;;;;;;6239924;23;20020;-72
2023/09/25 09:09:51;;;;;;;4.57;2.97;;;17.30;99.90;;;;;;6241663;23;20000;-72
2023/09/25 09:12:52;;;;;;;4.75;3.28;;;17.40;99.90;;;;;;6241457;23;20039;-72
2023/09/25 09:15:39;;;;;;;4.32;2.60;;;17.50;99.90;;;;;;6238832;23;20439;-71
2023/09/25 09:18:25;;;;;;;6.05;3.20;;;17.60;99.90;;;;;;6240423;23;20017;-72
2023/09/25 09:21:27;;;;;;;6.38;3.20;;;17.70;99.90;;;;;;6242276;23;20298;-71
2023/09/25 09:24:22;;;;;;;6.55;3.22;;;17.70;99.90;;;;;;6240876;23;20046;-72
2023/09/25 09:27:08;;;;;;;4.68;2.47;;;17.80;99.70;;;;;;6242028;23;20331;-71
2023/09/25 09:29:57;;;;;;;6.40;3.10;;;17.90;99.60;;;;;;6239941;23;20286;-71
2023/09/25 09:32:43;;;;;;;4.38;2.50;;;18.00;99.40;;;;;;6241262;23;20389;-72
2023/09/25 09:35:32;;;;;;;7.53;3.08;;;18.10;99.20;;;;;;6217973;23;20012;-73
2023/09/25 09:38:21;;;;;;;4.22;3.10;;;18.20;99.00;;;;;;6239516;22;20024;-72
2023/09/25 09:41:08;;;;;;;6.60;3.38;;;18.20;98.80;;;;;;6239741;23;20004;-71
2023/09/25 09:43:54;;;;;;;4.55;2.70;;;18.30;98.70;;;;;;6239405;23;20008;-72
2023/09/25 09:46:44;;;;;;;4.25;3.13;;;18.30;98.60;;;;;;6240224;23;20023;-71
2023/09/25 09:49:34;;;;;;;6.07;3.42;;;18.40;98.40;;;;;;6216929;23;20008;-71
2023/09/25 09:52:20;;;;;;;6.00;3.20;;;18.50;98.20;;;;;;6239610;23;20019;-72
2023/09/25 09:55:08;;;;;;;3.97;2.67;;;18.60;98.10;;;;;;6241302;22;20091;-70
2023/09/25 09:57:55;;;;;;;4.40;2.55;;;18.60;98.00;;;;;;6240706;23;20004;-71
2023/09/25 10:00:41;;;;;;;4.70;3.03;;;18.70;97.70;;;;;;6239401;23;20008;-72
2023/09/25 10:03:29;;;;;;;4.82;3.08;;;18.80;97.60;;;;;;6241709;23;20015;-72
2023/09/25 10:06:14;;;;;;;3.47;2.55;;;18.90;97.50;;;;;;6241630;23;20112;-72
2023/09/25 10:09:11;;;;;;;4.60;2.40;;;19.00;97.30;;;;;;6243510;23;20008;-73
2023/09/25 10:11:58;;;;;;;5.45;3.03;;;19.00;96.90;;;;;;6241703;23;20397;-73
2023/09/25 10:14:50;;;;;;;3.90;2.70;;;19.10;96.70;;;;;;6243124;23;20417;-73
2023/09/25 10:17:43;;;;;;;5.15;2.88;;;19.20;96.50;;;;;;6240894;23;20095;-73
2023/09/25 10:20:40;;;;;;;4.43;2.55;;;19.30;96.40;;;;;;6241043;23;20062;-72
2023/09/25 10:23:27;;;;;;;4.72;2.30;;;19.30;96.30;;;;;;6241000;23;20255;-72
2023/09/25 10:26:17;;;;;;;3.40;2.45;;;19.40;96.10;;;;;;6240148;23;20020;-72
2023/09/25 10:29:14;;;;;;;5.50;2.83;;;19.40;95.80;;;;;;6243907;23;20012;-73
2023/09/25 10:32:01;;;;;;;3.45;2.50;;;19.50;95.70;;;;;;6241182;23;20012;-73
2023/09/25 10:34:50;;;;;;;4.45;3.40;;;19.60;95.70;;;;;;6241873;23;20134;-72
2023/09/25 10:37:36;;;;;;;4.97;2.83;;;19.60;95.50;;;;;;6240153;22;20016;-73
2023/09/25 10:40:22;;;;;;;5.50;2.88;;;19.70;95.50;;;;;;6243347;22;20008;-73
2023/09/25 10:43:08;;;;;;;5.40;2.50;;;19.80;95.30;;;;;;6241450;23;20441;-72
2023/09/25 10:45:54;;;;;;;4.47;2.50;;;19.90;95.00;;;;;;6242171;23;20024;-71
2023/09/25 10:48:40;;;;;;;4.68;2.40;;;19.90;94.80;;;;;;6243436;22;20008;-72
2023/09/25 10:51:26;;;;;;;5.07;2.42;;;20.00;94.70;;;;;;6242429;23;20511;-73
2023/09/25 10:54:12;;;;;;;3.58;2.30;;;20.00;94.40;;;;;;6242797;22;20008;-71
2023/09/25 10:56:59;;;;;;;5.47;2.35;;;20.10;94.30;;;;;;6241399;22;20012;-73
2023/09/25 10:59:45;;;;;;;6.07;2.35;;;20.10;94.30;;;;;;6242416;23;20011;-72
2023/09/25 11:02:31;;;;;;;3.90;2.10;;;20.20;94.30;;;;;;6242522;22;20019;-72
2023/09/25 11:05:17;;;;;;;3.85;2.92;;;20.20;94.10;;;;;;6242150;23;20016;-73
2023/09/25 11:08:06;;;;;;;5.13;2.70;;;20.30;94.00;;;;;;6242735;23;20016;-73
2023/09/25 11:10:52;;;;;;;2.85;2.13;;;20.40;93.90;;;;;;6242483;23;20107;-72
2023/09/25 11:13:39;;;;;;;6.93;2.67;;;20.40;93.70;;;;;;6240686;23;20027;-73
2023/09/25 11:16:25;;;;;;;5.60;2.97;;;20.50;93.50;;;;;;6242846;22;20008;-72
2023/09/25 11:19:12;;;;;;;3.53;2.30;;;20.60;93.50;;;;;;6241140;23;20015;-73
2023/09/25 11:22:00;;;;;;;5.65;2.47;;;20.60;93.30;;;;;;6242051;23;20397;-73
2023/09/25 11:24:55;;;;;;;3.15;2.00;;;20.60;93.10;;;;;;6240701;23;20012;-72
2023/09/25 11:27:54;;;;;;;3.03;2.40;;;20.70;93.10;;;;;;6241001;23;20027;-73
2023/09/25 11:30:42;;;;;;;3.38;2.20;;;20.80;93.10;;;;;;6242153;23;20005;-73
2023/09/25 11:33:28;;;;;;;3.25;1.90;;;20.80;92.90;;;;;;6240053;23;20015;-72
2023/09/25 11:36:14;;;;;;;3.63;2.28;;;20.80;92.70;;;;;;6242292;23;20097;-72
2023/09/25 11:39:12;;;;;;;4.47;2.40;;;20.90;92.60;;;;;;6242890;23;20284;-72
2023/09/25 11:41:58;;;;;;;3.05;2.15;;;20.90;92.50;;;;;;6243076;23;20040;-72
2023/09/25 11:44:44;;;;;;;4.85;2.00;;;21.00;92.40;;;;;;6242638;23;20468;-72
2023/09/25 11:47:30;;;;;;;4.50;2.22;;;21.10;92.30;;;;;;6219062;23;20012;-73
2023/09/25 11:50:16;;;;;;;5.25;2.85;;;21.10;92.50;;;;;;6243257;23;20062;-73
2023/09/25 11:53:02;;;;;;;3.35;2.35;;;21.20;92.50;;;;;;6241084;23;20450;-73
2023/09/25 11:55:50;;;;;;;4.35;2.58;;;21.20;92.10;;;;;;6241977;22;20275;-73
2023/09/25 11:58:36;;;;;;;10.10;2.70;;;21.20;92.00;;;;;;6241198;23;20008;-74
2023/09/25 12:01:22;;;;;;;5.35;2.50;;;21.30;91.70;;;;;;6241752;23;20104;-74
2023/09/25 12:04:09;;;;;;;7.47;4.03;;;21.30;91.70;;;;;;6240128;23;20016;-73
2023/09/25 12:06:56;;;;;;;5.90;2.85;;;21.30;91.90;;;;;;6239123;23;20038;-74
2023/09/25 12:09:42;;;;;;;2.97;2.20;;;21.40;91.60;;;;;;6240018;23;20256;-74
2023/09/25 12:12:28;;;;;;;3.47;1.85;;;21.40;91.30;;;;;;6241247;22;20036;-74
2023/09/25 12:15:16;;;;;;;3.92;2.15;;;21.40;91.00;;;;;;6237517;23;20032;-75
2023/09/25 12:18:04;;;;;;;3.97;2.08;;;21.40;91.10;;;;;;6216178;23;20005;-75
2023/09/25 12:20:50;;;;;;;2.88;2.20;;;21.40;91.00;;;;;;6240881;23;20012;-74
2023/09/25 12:23:36;;;;;;;3.67;2.20;;;21.50;90.80;;;;;;6241932;23;20004;-75
2023/09/25 12:26:22;;;;;;;3.33;2.08;;;21.50;90.80;;;;;;6241889;22;20323;-74
2023/09/25 12:29:08;;;;;;;3.97;2.22;;;21.60;90.80;;;;;;6242048;23;20015;-73
2023/09/25 12:31:54;;;;;;;2.88;1.90;;;21.70;90.80;;;;;;6239488;23;20291;-75
2023/09/25 12:34:41;;;;;;;5.20;2.38;;;21.70;90.50;;;;;;6238531;23;20008;-74
2023/09/25 12:37:28;;;;;;;3.05;2.10;;;21.70;90.40;;;;;;6241650;23;20429;-75
2023/09/25 12:40:15;;;;;;;4.40;2.28;;;21.70;90.30;;;;;;6241063;23;20024;-75
2023/09/25 12:43:01;;;;;;;4.00;2.03;;;21.70;90.30;;;;;;6218637;23;20486;-74
2023/09/25 12:45:47;;;;;;;5.18;2.60;;;21.70;90.30;;;;;;6239834;23;20095;-75
2023/09/25 12:48:37;;;;;;;3.88;1.95;;;21.70;90.10;;;;;;6239294;23;20466;-75
2023/09/25 12:51:24;;;;;;;3.58;2.33;;;21.80;90.20;;;;;;6239465;23;20008;-75
2023/09/25 12:54:10;;;;;;;3.22;1.67;;;21.90;90.20;;;;;;6217754;23;20043;-73
2023/09/25 12:56:57;;;;;;;3.85;1.85;;;21.90;90.10;;;;;;6239255;22;20011;-58
2023/09/25 12:59:46;;;;;;;2.72;2.20;;;22.00;90.00;;;;;;6240304;23;20020;-57
2023/09/25 13:02:32;;;;;;;4.85;1.65;;;22.10;90.00;;;;;;6239269;23;20019;-57
2023/09/25 13:05:18;;;;;;;2.83;2.05;;;22.20;89.90;;;;;;6240240;23;20015;-58
2023/09/25 13:08:05;;;;;;;4.47;1.88;;;22.30;89.70;;;;;;6239209;23;20020;-58
2023/09/25 13:10:51;;;;;;;6.50;2.13;;;22.30;89.30;;;;;;6239612;23;20362;-58
2023/09/25 13:13:37;;;;;;;2.50;1.88;;;22.40;89.20;;;;;;6239853;23;20335;-58
2023/09/25 13:16:23;;;;;;;1.95;1.48;;;22.40;89.00;;;;;;6241672;22;20050;-58
2023/09/25 13:19:09;;;;;;;2.75;1.83;;;22.50;88.70;;;;;;6239684;23;20800;-58
2023/09/25 13:21:55;;;;;;;3.20;1.70;;;22.50;88.70;;;;;;6240325;23;20012;-58
2023/09/25 13:24:41;;;;;;;3.05;1.98;;;22.60;88.70;;;;;;6240814;23;20004;-58
2023/09/25 13:27:27;;;;;;;2.55;1.50;;;22.70;88.50;;;;;;6241706;22;20095;-58
2023/09/25 13:30:16;;;;;;;3.10;1.70;;;22.80;87.90;;;;;;6241611;23;20012;-58
2023/09/25 13:33:02;;;;;;;2.03;1.40;;;22.80;87.80;;;;;;6239368;23;20012;-59
2023/09/25 13:35:48;;;;;;;3.80;1.30;;;22.80;87.60;;;;;;6242152;22;20043;-58
2023/09/25 13:38:34;;;;;;;3.08;1.95;;;22.90;87.30;;;;;;6242534;23;20023;-60
2023/09/25 13:41:20;;;;;;;1.92;1.70;;;22.90;87.40;;;;;;6243938;23;20350;-60
2023/09/25 13:44:06;;;;;;;6.07;1.45;;;22.90;87.40;;;;;;6241580;23;20298;-58
2023/09/25 13:46:54;;;;;;;2.83;1.92;;;23.00;87.80;;;;;;6242972;23;20023;-58
2023/09/25 13:49:43;;;;;;;2.33;1.80;;;23.00;87.60;;;;;;6241204;23;20000;-59
2023/09/25 13:52:29;;;;;;;2.47;1.48;;;23.00;87.10;;;;;;6241676;23;20015;-58
2023/09/25 13:55:15;;;;;;;4.35;1.80;;;23.10;87.30;;;;;;6240674;22;20035;-58
2023/09/25 13:58:01;;;;;;;2.25;1.40;;;23.10;86.20;;;;;;6241313;23;20430;-59
2023/09/25 14:00:47;;;;;;;3.13;1.40;;;23.20;86.80;;;;;;6241446;23;20007;-58
2023/09/25 14:03:33;;;;;;;2.45;1.45;;;23.30;86.30;;;;;;6241777;23;20008;-58
2023/09/25 14:06:19;;;;;;;4.32;1.50;;;23.30;85.70;;;;;;6242739;23;20073;-59
2023/09/25 14:09:05;;;;;;;4.63;1.45;;;23.30;85.90;;;;;;6243244;22;20148;-58
2023/09/25 14:11:53;;;;;;;2.85;1.63;;;23.40;85.60;;;;;;6242920;22;20103;-58
2023/09/25 14:14:45;;;;;;;1.95;1.60;;;23.40;85.20;;;;;;6238074;23;20062;-59
2023/09/25 14:17:31;;;;;;;3.25;1.20;;;23.40;84.90;;;;;;6239331;23;20019;-58
2023/09/25 14:20:17;;;;;;;2.58;1.20;;;23.50;84.90;;;;;;6242171;23;20012;-59
2023/09/25 14:23:03;;;;;;;3.75;1.40;;;23.50;85.20;;;;;;6242669;22;20023;-59
2023/09/25 14:25:49;;;;;;;1.63;1.20;;;23.50;84.20;;;;;;6239641;23;20016;-59
2023/09/25 14:28:35;;;;;;;4.85;1.45;;;23.50;83.80;;;;;;6243406;23;20054;-59
2023/09/25 14:31:21;;;;;;;2.35;1.40;;;23.50;83.90;;;;;;6243500;22;20000;-58
2023/09/25 14:34:07;;;;;;;1.70;1.50;;;23.50;83.80;;;;;;6241695;23;20008;-59